sensor_id;sensor_type;location;lat;lon;timestamp;P1;durP1;ratioP1;P2;durP2;ratioP2
14992;SDS011;7592;51.088;13.732;2023-10-19T00:00:43;8.50;;;5.03;;
14992;SDS011;7592;51.088;13.732;2023-10-19T00:05:36;7.57;;;4.70;;
14992;SDS011;7592;51.088;13.732;2023-10-19T00:10:29;5.67;;;4.67;;
14992;SDS011;7592;51.088;13.732;2023-10-19T00:15:26;8.07;;;4.10;;
14992;SDS011;7592;51.088;13.732;2023-10-19T00:20:23;7.40;;;4.63;;
14992;SDS011;7592;51.088;13.732;2023-10-19T00:25:50;9.53;;;4.20;;
14992;SDS011;7592;51.088;13.732;2023-10-19T00:30:43;4.97;;;4.47;;
14992;SDS011;7592;51.088;13.732;2023-10-19T00:35:36;6.90;;;4.73;;
14992;SDS011;7592;51.088;13.732;2023-10-19T00:40:34;5.37;;;4.70;;
14992;SDS011;7592;51.088;13.732;2023-10-19T00:45:26;10.20;;;5.00;;
14992;SDS011;7592;51.088;13.732;2023-10-19T00:50:19;6.00;;;4.50;;
14992;SDS011;7592;51.088;13.732;2023-10-19T00:55:14;9.97;;;5.17;;
14992;SDS011;7592;51.088;13.732;2023-10-19T01:00:07;9.83;;;4.87;;
14992;SDS011;7592;51.088;13.732;2023-10-19T01:11:50;12.30;;;6.07;;
14992;SDS011;7592;51.088;13.732;2023-10-19T01:16:44;6.07;;;4.43;;
14992;SDS011;7592;51.088;13.732;2023-10-19T01:21:37;8.83;;;5.27;;
14992;SDS011;7592;51.088;13.732;2023-10-19T01:26:36;6.20;;;4.63;;
14992;SDS011;7592;51.088;13.732;2023-10-19T01:31:29;8.33;;;5.80;;
14992;SDS011;7592;51.088;13.732;2023-10-19T01:36:22;8.20;;;5.50;;
14992;SDS011;7592;51.088;13.732;2023-10-19T01:41:14;6.70;;;5.63;;
14992;SDS011;7592;51.088;13.732;2023-10-19T01:46:11;9.00;;;5.50;;
14992;SDS011;7592;51.088;13.732;2023-10-19T01:51:04;10.43;;;5.60;;
14992;SDS011;7592;51.088;13.732;2023-10-19T01:55:57;6.20;;;5.20;;
14992;SDS011;7592;51.088;13.732;2023-10-19T02:00:49;9.13;;;6.60;;
14992;SDS011;7592;51.088;13.732;2023-10-19T02:05:41;7.03;;;5.87;;
14992;SDS011;7592;51.088;13.732;2023-10-19T02:10:34;5.90;;;5.40;;
14992;SDS011;7592;51.088;13.732;2023-10-19T02:15:27;7.13;;;6.23;;
14992;SDS011;7592;51.088;13.732;2023-10-19T02:20:19;7.80;;;6.20;;
14992;SDS011;7592;51.088;13.732;2023-10-19T02:25:31;12.43;;;6.80;;
14992;SDS011;7592;51.088;13.732;2023-10-19T02:30:27;10.00;;;6.23;;
14992;SDS011;7592;51.088;13.732;2023-10-19T02:35:21;8.93;;;6.37;;
14992;SDS011;7592;51.088;13.732;2023-10-19T02:40:14;7.17;;;6.47;;
14992;SDS011;7592;51.088;13.732;2023-10-19T02:45:11;8.50;;;6.90;;
14992;SDS011;7592;51.088;13.732;2023-10-19T02:50:03;7.93;;;6.60;;
14992;SDS011;7592;51.088;13.732;2023-10-19T02:55:02;7.30;;;6.23;;
14992;SDS011;7592;51.088;13.732;2023-10-19T02:59:55;7.60;;;6.80;;
14992;SDS011;7592;51.088;13.732;2023-10-19T03:04:49;8.77;;;7.63;;
14992;SDS011;7592;51.088;13.732;2023-10-19T03:09:41;7.93;;;7.10;;
14992;SDS011;7592;51.088;13.732;2023-10-19T03:14:41;10.77;;;7.83;;
14992;SDS011;7592;51.088;13.732;2023-10-19T03:19:33;7.73;;;6.93;;
14992;SDS011;7592;51.088;13.732;2023-10-19T03:24:26;9.37;;;7.57;;
14992;SDS011;7592;51.088;13.732;2023-10-19T03:29:28;9.93;;;8.17;;
14992;SDS011;7592;51.088;13.732;2023-10-19T03:34:30;9.97;;;9.07;;
14992;SDS011;7592;51.088;13.732;2023-10-19T03:39:28;10.50;;;8.40;;
14992;SDS011;7592;51.088;13.732;2023-10-19T03:44:21;9.50;;;7.97;;
14992;SDS011;7592;51.088;13.732;2023-10-19T03:49:17;11.33;;;10.13;;
14992;SDS011;7592;51.088;13.732;2023-10-19T03:54:12;11.20;;;8.67;;
14992;SDS011;7592;51.088;13.732;2023-10-19T03:59:24;12.77;;;9.97;;
14992;SDS011;7592;51.088;13.732;2023-10-19T04:04:21;11.63;;;10.10;;
14992;SDS011;7592;51.088;13.732;2023-10-19T04:09:14;11.43;;;9.93;;
14992;SDS011;7592;51.088;13.732;2023-10-19T04:14:10;12.23;;;10.97;;
14992;SDS011;7592;51.088;13.732;2023-10-19T04:19:04;16.20;;;11.27;;
14992;SDS011;7592;51.088;13.732;2023-10-19T04:23:56;13.67;;;12.27;;
14992;SDS011;7592;51.088;13.732;2023-10-19T04:28:50;18.93;;;13.90;;
14992;SDS011;7592;51.088;13.732;2023-10-19T04:33:42;15.63;;;14.13;;
14992;SDS011;7592;51.088;13.732;2023-10-19T04:38:38;20.13;;;16.00;;
14992;SDS011;7592;51.088;13.732;2023-10-19T04:43:30;23.10;;;18.03;;
14992;SDS011;7592;51.088;13.732;2023-10-19T04:48:22;26.23;;;20.60;;
14992;SDS011;7592;51.088;13.732;2023-10-19T04:53:14;30.43;;;22.97;;
14992;SDS011;7592;51.088;13.732;2023-10-19T04:58:06;31.57;;;26.70;;
14992;SDS011;7592;51.088;13.732;2023-10-19T05:02:58;46.07;;;29.67;;
14992;SDS011;7592;51.088;13.732;2023-10-19T05:07:52;42.97;;;31.90;;
14992;SDS011;7592;51.088;13.732;2023-10-19T05:12:44;57.13;;;35.73;;
14992;SDS011;7592;51.088;13.732;2023-10-19T05:17:36;46.53;;;34.77;;
14992;SDS011;7592;51.088;13.732;2023-10-19T05:22:30;46.37;;;32.50;;
14992;SDS011;7592;51.088;13.732;2023-10-19T05:27:24;51.47;;;36.87;;
14992;SDS011;7592;51.088;13.732;2023-10-19T05:32:16;59.03;;;39.17;;
14992;SDS011;7592;51.088;13.732;2023-10-19T05:37:08;59.67;;;41.53;;
14992;SDS011;7592;51.088;13.732;2023-10-19T05:42:02;65.67;;;41.70;;
14992;SDS011;7592;51.088;13.732;2023-10-19T05:46:54;62.50;;;41.03;;
14992;SDS011;7592;51.088;13.732;2023-10-19T05:51:46;64.80;;;43.53;;
14992;SDS011;7592;51.088;13.732;2023-10-19T05:56:38;68.57;;;43.77;;
14992;SDS011;7592;51.088;13.732;2023-10-19T06:01:31;59.23;;;41.70;;
14992;SDS011;7592;51.088;13.732;2023-10-19T06:06:23;77.07;;;47.10;;
14992;SDS011;7592;51.088;13.732;2023-10-19T06:11:18;62.23;;;43.93;;
14992;SDS011;7592;51.088;13.732;2023-10-19T06:16:11;78.00;;;44.23;;
14992;SDS011;7592;51.088;13.732;2023-10-19T06:21:03;68.73;;;46.20;;
14992;SDS011;7592;51.088;13.732;2023-10-19T06:25:56;69.33;;;46.67;;
14992;SDS011;7592;51.088;13.732;2023-10-19T06:30:48;78.23;;;50.20;;
14992;SDS011;7592;51.088;13.732;2023-10-19T06:35:42;88.63;;;52.00;;
14992;SDS011;7592;51.088;13.732;2023-10-19T06:40:34;79.07;;;49.53;;
14992;SDS011;7592;51.088;13.732;2023-10-19T06:45:30;89.07;;;53.07;;
14992;SDS011;7592;51.088;13.732;2023-10-19T06:50:23;80.27;;;49.60;;
14992;SDS011;7592;51.088;13.732;2023-10-19T06:55:18;74.10;;;47.60;;
14992;SDS011;7592;51.088;13.732;2023-10-19T07:00:11;78.30;;;49.60;;
14992;SDS011;7592;51.088;13.732;2023-10-19T07:05:06;77.17;;;48.53;;
14992;SDS011;7592;51.088;13.732;2023-10-19T07:10:01;86.50;;;50.10;;
14992;SDS011;7592;51.088;13.732;2023-10-19T07:14:55;76.70;;;50.23;;
14992;SDS011;7592;51.088;13.732;2023-10-19T07:19:52;74.90;;;49.90;;
14992;SDS011;7592;51.088;13.732;2023-10-19T07:24:44;97.90;;;55.27;;
14992;SDS011;7592;51.088;13.732;2023-10-19T07:29:36;78.40;;;49.50;;
14992;SDS011;7592;51.088;13.732;2023-10-19T07:34:31;129.63;;;57.80;;
14992;SDS011;7592;51.088;13.732;2023-10-19T07:39:26;76.60;;;49.07;;
14992;SDS011;7592;51.088;13.732;2023-10-19T07:44:20;70.67;;;46.87;;
14992;SDS011;7592;51.088;13.732;2023-10-19T07:49:13;105.73;;;54.37;;
14992;SDS011;7592;51.088;13.732;2023-10-19T07:54:08;78.17;;;50.23;;
14992;SDS011;7592;51.088;13.732;2023-10-19T07:59:00;73.90;;;48.37;;
14992;SDS011;7592;51.088;13.732;2023-10-19T08:03:52;70.37;;;47.77;;
14992;SDS011;7592;51.088;13.732;2023-10-19T08:08:44;77.67;;;51.30;;
14992;SDS011;7592;51.088;13.732;2023-10-19T08:13:37;69.43;;;49.13;;
14992;SDS011;7592;51.088;13.732;2023-10-19T08:18:31;70.93;;;49.87;;
14992;SDS011;7592;51.088;13.732;2023-10-19T08:23:23;60.67;;;42.87;;
14992;SDS011;7592;51.088;13.732;2023-10-19T08:28:19;69.23;;;46.90;;
14992;SDS011;7592;51.088;13.732;2023-10-19T08:33:11;71.47;;;47.60;;
14992;SDS011;7592;51.088;13.732;2023-10-19T08:38:05;67.83;;;48.30;;
14992;SDS011;7592;51.088;13.732;2023-10-19T08:43:03;64.80;;;45.40;;
14992;SDS011;7592;51.088;13.732;2023-10-19T08:47:57;64.80;;;44.23;;
14992;SDS011;7592;51.088;13.732;2023-10-19T08:52:52;61.33;;;43.90;;
14992;SDS011;7592;51.088;13.732;2023-10-19T08:57:49;59.90;;;41.77;;
14992;SDS011;7592;51.088;13.732;2023-10-19T09:02:42;56.57;;;41.57;;
14992;SDS011;7592;51.088;13.732;2023-10-19T09:07:34;53.73;;;41.27;;
14992;SDS011;7592;51.088;13.732;2023-10-19T09:12:27;55.23;;;42.60;;
14992;SDS011;7592;51.088;13.732;2023-10-19T09:17:27;51.23;;;41.03;;
14992;SDS011;7592;51.088;13.732;2023-10-19T09:22:20;49.27;;;38.57;;
14992;SDS011;7592;51.088;13.732;2023-10-19T09:27:18;47.43;;;39.80;;
14992;SDS011;7592;51.088;13.732;2023-10-19T09:32:12;47.20;;;37.63;;
14992;SDS011;7592;51.088;13.732;2023-10-19T09:37:08;41.93;;;36.00;;
14992;SDS011;7592;51.088;13.732;2023-10-19T09:42:08;35.90;;;31.17;;
14992;SDS011;7592;51.088;13.732;2023-10-19T09:47:29;37.73;;;32.33;;
14992;SDS011;7592;51.088;13.732;2023-10-19T09:52:31;35.57;;;29.80;;
14992;SDS011;7592;51.088;13.732;2023-10-19T09:57:27;27.27;;;23.00;;
14992;SDS011;7592;51.088;13.732;2023-10-19T10:02:26;23.17;;;20.97;;
14992;SDS011;7592;51.088;13.732;2023-10-19T10:07:22;22.33;;;20.07;;
14992;SDS011;7592;51.088;13.732;2023-10-19T10:12:31;19.53;;;17.63;;
14992;SDS011;7592;51.088;13.732;2023-10-19T10:17:27;21.07;;;18.87;;
14992;SDS011;7592;51.088;13.732;2023-10-19T10:22:20;20.60;;;18.37;;
14992;SDS011;7592;51.088;13.732;2023-10-19T10:27:16;22.10;;;19.80;;
14992;SDS011;7592;51.088;13.732;2023-10-19T10:32:11;21.37;;;19.27;;
14992;SDS011;7592;51.088;13.732;2023-10-19T10:37:04;22.40;;;20.27;;
14992;SDS011;7592;51.088;13.732;2023-10-19T10:42:01;21.87;;;19.70;;
14992;SDS011;7592;51.088;13.732;2023-10-19T10:46:55;21.67;;;19.67;;
14992;SDS011;7592;51.088;13.732;2023-10-19T10:51:48;20.70;;;18.73;;
14992;SDS011;7592;51.088;13.732;2023-10-19T10:56:41;22.27;;;19.97;;
14992;SDS011;7592;51.088;13.732;2023-10-19T11:01:33;20.47;;;18.37;;
14992;SDS011;7592;51.088;13.732;2023-10-19T11:06:25;21.40;;;19.40;;
14992;SDS011;7592;51.088;13.732;2023-10-19T11:11:18;20.63;;;18.63;;
14992;SDS011;7592;51.088;13.732;2023-10-19T11:16:10;21.30;;;19.10;;
14992;SDS011;7592;51.088;13.732;2023-10-19T11:21:14;22.40;;;18.87;;
14992;SDS011;7592;51.088;13.732;2023-10-19T11:26:07;21.30;;;19.10;;
14992;SDS011;7592;51.088;13.732;2023-10-19T11:31:13;20.43;;;18.43;;
14992;SDS011;7592;51.088;13.732;2023-10-19T11:36:07;23.13;;;20.73;;
14992;SDS011;7592;51.088;13.732;2023-10-19T11:40:59;20.60;;;18.60;;
14992;SDS011;7592;51.088;13.732;2023-10-19T11:45:52;21.70;;;19.60;;
14992;SDS011;7592;51.088;13.732;2023-10-19T11:50:44;24.57;;;18.57;;
14992;SDS011;7592;51.088;13.732;2023-10-19T11:55:37;20.40;;;18.20;;
14992;SDS011;7592;51.088;13.732;2023-10-19T12:00:29;19.87;;;17.90;;
14992;SDS011;7592;51.088;13.732;2023-10-19T12:05:29;19.77;;;17.70;;
14992;SDS011;7592;51.088;13.732;2023-10-19T12:10:22;19.97;;;18.00;;
14992;SDS011;7592;51.088;13.732;2023-10-19T12:15:24;19.37;;;17.47;;
14992;SDS011;7592;51.088;13.732;2023-10-19T12:20:17;20.03;;;17.97;;
14992;SDS011;7592;51.088;13.732;2023-10-19T12:25:13;21.57;;;19.27;;
14992;SDS011;7592;51.088;13.732;2023-10-19T12:30:06;20.00;;;17.37;;
14992;SDS011;7592;51.088;13.732;2023-10-19T12:35:11;19.87;;;17.77;;
14992;SDS011;7592;51.088;13.732;2023-10-19T12:40:03;19.67;;;17.70;;
14992;SDS011;7592;51.088;13.732;2023-10-19T12:45:16;18.90;;;17.10;;
14992;SDS011;7592;51.088;13.732;2023-10-19T12:50:10;17.90;;;16.20;;
14992;SDS011;7592;51.088;13.732;2023-10-19T12:55:04;19.00;;;16.93;;
14992;SDS011;7592;51.088;13.732;2023-10-19T12:59:58;21.30;;;19.10;;
14992;SDS011;7592;51.088;13.732;2023-10-19T13:05:09;19.33;;;17.50;;
14992;SDS011;7592;51.088;13.732;2023-10-19T13:10:02;19.63;;;17.80;;
14992;SDS011;7592;51.088;13.732;2023-10-19T13:14:56;20.30;;;18.30;;
14992;SDS011;7592;51.088;13.732;2023-10-19T13:19:48;19.03;;;17.23;;
14992;SDS011;7592;51.088;13.732;2023-10-19T13:24:43;20.03;;;18.13;;
14992;SDS011;7592;51.088;13.732;2023-10-19T13:29:35;18.27;;;16.57;;
14992;SDS011;7592;51.088;13.732;2023-10-19T13:34:30;20.30;;;18.20;;
14992;SDS011;7592;51.088;13.732;2023-10-19T13:39:23;18.43;;;16.53;;
14992;SDS011;7592;51.088;13.732;2023-10-19T13:44:16;18.10;;;16.50;;
14992;SDS011;7592;51.088;13.732;2023-10-19T13:49:10;17.13;;;15.60;;
14992;SDS011;7592;51.088;13.732;2023-10-19T13:54:02;19.77;;;17.87;;
14992;SDS011;7592;51.088;13.732;2023-10-19T13:58:54;18.57;;;16.80;;
14992;SDS011;7592;51.088;13.732;2023-10-19T14:03:46;19.37;;;17.57;;
14992;SDS011;7592;51.088;13.732;2023-10-19T14:08:40;19.83;;;17.80;;
14992;SDS011;7592;51.088;13.732;2023-10-19T14:13:32;20.53;;;18.53;;
14992;SDS011;7592;51.088;13.732;2023-10-19T14:18:25;21.23;;;19.10;;
14992;SDS011;7592;51.088;13.732;2023-10-19T14:23:19;19.77;;;17.97;;
14992;SDS011;7592;51.088;13.732;2023-10-19T14:28:11;19.67;;;17.80;;
14992;SDS011;7592;51.088;13.732;2023-10-19T14:33:04;21.73;;;19.53;;
14992;SDS011;7592;51.088;13.732;2023-10-19T14:38:01;20.90;;;18.83;;
14992;SDS011;7592;51.088;13.732;2023-10-19T14:42:55;22.17;;;19.97;;
14992;SDS011;7592;51.088;13.732;2023-10-19T14:47:49;22.53;;;20.30;;
14992;SDS011;7592;51.088;13.732;2023-10-19T14:52:47;23.00;;;20.80;;
14992;SDS011;7592;51.088;13.732;2023-10-19T14:57:44;23.03;;;20.87;;
14992;SDS011;7592;51.088;13.732;2023-10-19T15:02:39;23.50;;;21.10;;
14992;SDS011;7592;51.088;13.732;2023-10-19T15:07:36;22.73;;;20.53;;
14992;SDS011;7592;51.088;13.732;2023-10-19T15:12:29;25.47;;;22.80;;
14992;SDS011;7592;51.088;13.732;2023-10-19T15:17:21;24.20;;;21.00;;
14992;SDS011;7592;51.088;13.732;2023-10-19T15:22:13;26.30;;;23.03;;
14992;SDS011;7592;51.088;13.732;2023-10-19T15:27:07;25.67;;;23.07;;
14992;SDS011;7592;51.088;13.732;2023-10-19T15:32:01;27.03;;;24.43;;
14992;SDS011;7592;51.088;13.732;2023-10-19T15:36:54;27.07;;;24.37;;
14992;SDS011;7592;51.088;13.732;2023-10-19T15:41:46;28.70;;;25.80;;
14992;SDS011;7592;51.088;13.732;2023-10-19T15:46:38;28.80;;;25.97;;
14992;SDS011;7592;51.088;13.732;2023-10-19T15:51:31;31.73;;;28.43;;
14992;SDS011;7592;51.088;13.732;2023-10-19T15:56:23;30.17;;;27.17;;
14992;SDS011;7592;51.088;13.732;2023-10-19T16:01:18;31.17;;;27.97;;
14992;SDS011;7592;51.088;13.732;2023-10-19T16:06:10;29.63;;;26.77;;
14992;SDS011;7592;51.088;13.732;2023-10-19T16:11:02;33.03;;;29.53;;
14992;SDS011;7592;51.088;13.732;2023-10-19T16:15:55;32.37;;;28.87;;
14992;SDS011;7592;51.088;13.732;2023-10-19T16:20:48;32.57;;;29.17;;
14992;SDS011;7592;51.088;13.732;2023-10-19T16:25:40;34.23;;;30.73;;
14992;SDS011;7592;51.088;13.732;2023-10-19T16:30:32;33.90;;;30.27;;
14992;SDS011;7592;51.088;13.732;2023-10-19T16:35:24;34.10;;;30.50;;
14992;SDS011;7592;51.088;13.732;2023-10-19T16:40:17;32.00;;;28.70;;
14992;SDS011;7592;51.088;13.732;2023-10-19T16:45:10;33.50;;;29.80;;
14992;SDS011;7592;51.088;13.732;2023-10-19T16:50:02;33.13;;;29.63;;
14992;SDS011;7592;51.088;13.732;2023-10-19T16:54:58;34.60;;;30.83;;
14992;SDS011;7592;51.088;13.732;2023-10-19T16:59:50;34.00;;;30.40;;
14992;SDS011;7592;51.088;13.732;2023-10-19T17:04:43;34.60;;;31.00;;
14992;SDS011;7592;51.088;13.732;2023-10-19T17:09:35;34.47;;;30.83;;
14992;SDS011;7592;51.088;13.732;2023-10-19T17:14:27;33.57;;;30.17;;
14992;SDS011;7592;51.088;13.732;2023-10-19T17:19:19;33.87;;;30.37;;
14992;SDS011;7592;51.088;13.732;2023-10-19T17:24:13;35.07;;;31.20;;
14992;SDS011;7592;51.088;13.732;2023-10-19T17:29:05;35.37;;;31.67;;
14992;SDS011;7592;51.088;13.732;2023-10-19T17:33:58;37.60;;;33.60;;
14992;SDS011;7592;51.088;13.732;2023-10-19T17:38:50;37.10;;;33.10;;
14992;SDS011;7592;51.088;13.732;2023-10-19T17:43:42;38.20;;;34.10;;
14992;SDS011;7592;51.088;13.732;2023-10-19T17:48:35;38.20;;;33.13;;
14992;SDS011;7592;51.088;13.732;2023-10-19T17:53:27;36.37;;;32.43;;
14992;SDS011;7592;51.088;13.732;2023-10-19T17:58:19;34.53;;;30.77;;
14992;SDS011;7592;51.088;13.732;2023-10-19T18:03:11;38.60;;;33.50;;
14992;SDS011;7592;51.088;13.732;2023-10-19T18:08:05;36.10;;;32.20;;
14992;SDS011;7592;51.088;13.732;2023-10-19T18:12:58;37.30;;;33.20;;
14992;SDS011;7592;51.088;13.732;2023-10-19T18:17:51;35.87;;;32.10;;
14992;SDS011;7592;51.088;13.732;2023-10-19T18:22:43;33.93;;;30.40;;
14992;SDS011;7592;51.088;13.732;2023-10-19T18:27:36;34.70;;;31.10;;
14992;SDS011;7592;51.088;13.732;2023-10-19T18:32:28;39.10;;;33.93;;
14992;SDS011;7592;51.088;13.732;2023-10-19T18:37:20;36.90;;;32.77;;
14992;SDS011;7592;51.088;13.732;2023-10-19T18:42:13;38.87;;;34.53;;
14992;SDS011;7592;51.088;13.732;2023-10-19T18:47:05;36.77;;;32.77;;
14992;SDS011;7592;51.088;13.732;2023-10-19T18:51:57;37.00;;;33.07;;
14992;SDS011;7592;51.088;13.732;2023-10-19T18:56:49;37.17;;;32.47;;
14992;SDS011;7592;51.088;13.732;2023-10-19T19:01:42;35.47;;;31.60;;
14992;SDS011;7592;51.088;13.732;2023-10-19T19:06:35;35.87;;;32.10;;
14992;SDS011;7592;51.088;13.732;2023-10-19T19:11:27;36.43;;;32.67;;
14992;SDS011;7592;51.088;13.732;2023-10-19T19:16:19;36.93;;;32.93;;
14992;SDS011;7592;51.088;13.732;2023-10-19T19:21:12;38.37;;;33.80;;
14992;SDS011;7592;51.088;13.732;2023-10-19T19:26:05;35.63;;;31.73;;
14992;SDS011;7592;51.088;13.732;2023-10-19T19:31:00;36.90;;;32.50;;
14992;SDS011;7592;51.088;13.732;2023-10-19T19:35:52;35.13;;;31.37;;
14992;SDS011;7592;51.088;13.732;2023-10-19T19:40:45;40.50;;;33.77;;
14992;SDS011;7592;51.088;13.732;2023-10-19T19:45:38;39.57;;;33.43;;
14992;SDS011;7592;51.088;13.732;2023-10-19T19:50:34;38.97;;;34.77;;
14992;SDS011;7592;51.088;13.732;2023-10-19T19:55:26;38.17;;;34.00;;
14992;SDS011;7592;51.088;13.732;2023-10-19T20:00:19;39.57;;;34.03;;
14992;SDS011;7592;51.088;13.732;2023-10-19T20:05:14;39.90;;;33.50;;
14992;SDS011;7592;51.088;13.732;2023-10-19T20:10:12;40.13;;;33.20;;
14992;SDS011;7592;51.088;13.732;2023-10-19T20:15:06;46.70;;;40.27;;
14992;SDS011;7592;51.088;13.732;2023-10-19T20:20:02;46.90;;;41.80;;
14992;SDS011;7592;51.088;13.732;2023-10-19T20:25:03;48.23;;;38.73;;
14992;SDS011;7592;51.088;13.732;2023-10-19T20:29:56;41.83;;;36.20;;
14992;SDS011;7592;51.088;13.732;2023-10-19T20:34:48;43.13;;;36.87;;
14992;SDS011;7592;51.088;13.732;2023-10-19T20:39:41;39.90;;;33.53;;
14992;SDS011;7592;51.088;13.732;2023-10-19T20:44:33;36.17;;;32.20;;
14992;SDS011;7592;51.088;13.732;2023-10-19T20:49:35;44.87;;;36.47;;
14992;SDS011;7592;51.088;13.732;2023-10-19T20:54:27;46.00;;;38.70;;
14992;SDS011;7592;51.088;13.732;2023-10-19T20:59:20;42.67;;;36.80;;
14992;SDS011;7592;51.088;13.732;2023-10-19T21:04:13;42.43;;;36.80;;
14992;SDS011;7592;51.088;13.732;2023-10-19T21:09:06;43.57;;;35.63;;
14992;SDS011;7592;51.088;13.732;2023-10-19T21:13:58;44.33;;;38.13;;
14992;SDS011;7592;51.088;13.732;2023-10-19T21:18:50;47.53;;;38.00;;
14992;SDS011;7592;51.088;13.732;2023-10-19T21:23:42;46.67;;;38.67;;
14992;SDS011;7592;51.088;13.732;2023-10-19T21:28:34;44.50;;;38.03;;
14992;SDS011;7592;51.088;13.732;2023-10-19T21:33:27;49.23;;;39.90;;
14992;SDS011;7592;51.088;13.732;2023-10-19T21:38:20;52.67;;;43.40;;
14992;SDS011;7592;51.088;13.732;2023-10-19T21:43:12;51.17;;;42.23;;
14992;SDS011;7592;51.088;13.732;2023-10-19T21:48:05;47.27;;;41.23;;
14992;SDS011;7592;51.088;13.732;2023-10-19T21:52:59;47.80;;;40.60;;
14992;SDS011;7592;51.088;13.732;2023-10-19T21:57:51;51.57;;;43.57;;
14992;SDS011;7592;51.088;13.732;2023-10-19T22:02:43;51.30;;;42.57;;
14992;SDS011;7592;51.088;13.732;2023-10-19T22:07:55;48.17;;;40.20;;
14992;SDS011;7592;51.088;13.732;2023-10-19T22:12:48;51.63;;;42.87;;
14992;SDS011;7592;51.088;13.732;2023-10-19T22:17:40;49.00;;;43.20;;
14992;SDS011;7592;51.088;13.732;2023-10-19T22:22:33;53.67;;;45.23;;
14992;SDS011;7592;51.088;13.732;2023-10-19T22:27:27;49.67;;;42.07;;
14992;SDS011;7592;51.088;13.732;2023-10-19T22:32:19;49.60;;;41.03;;
14992;SDS011;7592;51.088;13.732;2023-10-19T22:37:13;46.70;;;41.00;;
14992;SDS011;7592;51.088;13.732;2023-10-19T22:42:06;54.03;;;45.03;;
14992;SDS011;7592;51.088;13.732;2023-10-19T22:46:58;49.67;;;42.17;;
14992;SDS011;7592;51.088;13.732;2023-10-19T22:51:51;51.20;;;44.00;;
14992;SDS011;7592;51.088;13.732;2023-10-19T22:56:43;61.40;;;48.70;;
14992;SDS011;7592;51.088;13.732;2023-10-19T23:01:35;52.80;;;44.53;;
14992;SDS011;7592;51.088;13.732;2023-10-19T23:06:27;51.13;;;43.63;;
14992;SDS011;7592;51.088;13.732;2023-10-19T23:11:21;53.67;;;45.07;;
14992;SDS011;7592;51.088;13.732;2023-10-19T23:16:18;60.97;;;49.40;;
14992;SDS011;7592;51.088;13.732;2023-10-19T23:21:13;50.30;;;42.33;;
14992;SDS011;7592;51.088;13.732;2023-10-19T23:26:06;54.17;;;45.60;;
14992;SDS011;7592;51.088;13.732;2023-10-19T23:30:59;55.70;;;47.00;;
14992;SDS011;7592;51.088;13.732;2023-10-19T23:35:58;54.77;;;43.80;;
14992;SDS011;7592;51.088;13.732;2023-10-19T23:40:54;59.50;;;46.97;;
14992;SDS011;7592;51.088;13.732;2023-10-19T23:45:47;60.60;;;49.77;;
14992;SDS011;7592;51.088;13.732;2023-10-19T23:50:40;57.83;;;49.13;;
14992;SDS011;7592;51.088;13.732;2023-10-19T23:55:33;57.97;;;46.47;;
